sensor_id;sensor_type;location;lat;lon;timestamp;pressure;altitude;pressure_sealevel;temperature;humidity
27864;BME280;15980;51.092;13.916;2024-03-23T00:58:34;97850.16;;;8.54;88.04
27864;BME280;15980;51.092;13.916;2024-03-23T01:08:34;97847.56;;;8.21;89.03
27864;BME280;15980;51.092;13.916;2024-03-23T01:18:34;97847.78;;;7.88;90.26
27864;BME280;15980;51.092;13.916;2024-03-23T01:28:35;97846.97;;;7.87;91.57
27864;BME280;15980;51.092;13.916;2024-03-23T01:38:35;97824.69;;;7.61;91.99
27864;BME280;15980;51.092;13.916;2024-03-23T01:48:35;97804.66;;;7.69;93.15
27864;BME280;15980;51.092;13.916;2024-03-23T01:58:36;97771.63;;;7.86;94.35
27864;BME280;15980;51.092;13.916;2024-03-23T02:08:36;97775.44;;;7.57;94.57
27864;BME280;15980;51.092;13.916;2024-03-23T02:18:37;97766.31;;;7.66;95.43
27864;BME280;15980;51.092;13.916;2024-03-23T02:28:37;97751.03;;;7.89;96.81
27864;BME280;15980;51.092;13.916;2024-03-23T02:38:37;97738.84;;;8.27;99.43
27864;BME280;15980;51.092;13.916;2024-03-23T02:48:37;97703.16;;;8.07;98.44
27864;BME280;15980;51.092;13.916;2024-03-23T02:58:38;97712.81;;;7.77;98.58
27864;BME280;15980;51.092;13.916;2024-03-23T03:08:38;97702.16;;;8.00;100.00
27864;BME280;15980;51.092;13.916;2024-03-23T03:18:39;97698.97;;;8.38;100.00
27864;BME280;15980;51.092;13.916;2024-03-23T03:28:39;97682.75;;;8.45;98.92
27864;BME280;15980;51.092;13.916;2024-03-23T03:38:39;97673.31;;;8.58;100.00
27864;BME280;15980;51.092;13.916;2024-03-23T03:48:39;97667.97;;;8.77;100.00
27864;BME280;15980;51.092;13.916;2024-03-23T03:58:40;97626.56;;;8.63;100.00
27864;BME280;15980;51.092;13.916;2024-03-23T04:08:40;97636.34;;;8.33;100.00
27864;BME280;15980;51.092;13.916;2024-03-23T04:18:41;97628.25;;;8.08;100.00
27864;BME280;15980;51.092;13.916;2024-03-23T04:28:41;97614.56;;;7.65;100.00
27864;BME280;15980;51.092;13.916;2024-03-23T04:38:41;97595.34;;;7.33;100.00
27864;BME280;15980;51.092;13.916;2024-03-23T04:48:42;97575.03;;;7.18;100.00
27864;BME280;15980;51.092;13.916;2024-03-23T04:58:42;97570.47;;;7.22;100.00
27864;BME280;15980;51.092;13.916;2024-03-23T05:08:43;97515.03;;;7.18;100.00
27864;BME280;15980;51.092;13.916;2024-03-23T05:18:43;97500.13;;;7.16;100.00
27864;BME280;15980;51.092;13.916;2024-03-23T05:28:43;97487.66;;;7.15;100.00
27864;BME280;15980;51.092;13.916;2024-03-23T05:38:44;97442.41;;;7.57;100.00
27864;BME280;15980;51.092;13.916;2024-03-23T05:48:44;97455.81;;;7.94;100.00
27864;BME280;15980;51.092;13.916;2024-03-23T05:58:45;97457.47;;;8.14;99.43
27864;BME280;15980;51.092;13.916;2024-03-23T06:08:45;97435.59;;;8.30;99.40
27864;BME280;15980;51.092;13.916;2024-03-23T06:18:45;97404.53;;;8.03;99.22
27864;BME280;15980;51.092;13.916;2024-03-23T06:28:46;97366.06;;;8.28;99.67
27864;BME280;15980;51.092;13.916;2024-03-23T06:38:46;97353.72;;;8.53;99.27
27864;BME280;15980;51.092;13.916;2024-03-23T06:48:47;97334.28;;;8.58;99.56
27864;BME280;15980;51.092;13.916;2024-03-23T06:58:47;97300.81;;;8.65;98.97
27864;BME280;15980;51.092;13.916;2024-03-23T07:08:47;97298.44;;;8.82;97.98
27864;BME280;15980;51.092;13.916;2024-03-23T07:18:50;97294.81;;;8.98;97.90
27864;BME280;15980;51.092;13.916;2024-03-23T07:28:50;97297.19;;;8.99;98.16
27864;BME280;15980;51.092;13.916;2024-03-23T07:38:50;97254.06;;;9.38;98.16
27864;BME280;15980;51.092;13.916;2024-03-23T07:48:51;97219.03;;;9.77;96.86
27864;BME280;15980;51.092;13.916;2024-03-23T07:58:51;97219.41;;;10.06;95.23
27864;BME280;15980;51.092;13.916;2024-03-23T08:08:54;97191.72;;;10.15;95.17
27864;BME280;15980;51.092;13.916;2024-03-23T08:18:54;97166.94;;;10.78;92.74
27864;BME280;15980;51.092;13.916;2024-03-23T08:28:55;97140.56;;;11.14;90.47
27864;BME280;15980;51.092;13.916;2024-03-23T08:38:55;97115.09;;;11.79;87.24
27864;BME280;15980;51.092;13.916;2024-03-23T08:48:55;97104.50;;;11.81;87.38
27864;BME280;15980;51.092;13.916;2024-03-23T08:58:56;97120.47;;;11.65;87.68
27864;BME280;15980;51.092;13.916;2024-03-23T09:08:56;97123.84;;;12.17;87.17
27864;BME280;15980;51.092;13.916;2024-03-23T09:18:58;97120.78;;;13.14;81.49
27864;BME280;15980;51.092;13.916;2024-03-23T09:28:58;97129.06;;;12.89;78.50
27864;BME280;15980;51.092;13.916;2024-03-23T09:38:58;97143.53;;;12.30;81.03
27864;BME280;15980;51.092;13.916;2024-03-23T09:48:59;97146.00;;;11.69;82.57
27864;BME280;15980;51.092;13.916;2024-03-23T09:59:03;97180.38;;;10.87;88.13
27864;BME280;15980;51.092;13.916;2024-03-23T10:09:16;97228.38;;;9.73;95.17
27864;BME280;15980;51.092;13.916;2024-03-23T10:19:30;97322.66;;;7.56;99.56
27864;BME280;15980;51.092;13.916;2024-03-23T10:29:31;97391.38;;;5.70;100.00
27864;BME280;15980;51.092;13.916;2024-03-23T10:39:33;97456.09;;;4.86;100.00
27864;BME280;15980;51.092;13.916;2024-03-23T10:49:35;97513.81;;;4.62;100.00
27864;BME280;15980;51.092;13.916;2024-03-23T10:59:39;97567.94;;;4.67;100.00
27864;BME280;15980;51.092;13.916;2024-03-23T11:09:41;97593.50;;;4.45;100.00
27864;BME280;15980;51.092;13.916;2024-03-23T11:19:41;97628.84;;;4.36;100.00
27864;BME280;15980;51.092;13.916;2024-03-23T11:29:42;97627.03;;;4.49;100.00
27864;BME280;15980;51.092;13.916;2024-03-23T11:39:42;97655.88;;;4.62;100.00
27864;BME280;15980;51.092;13.916;2024-03-23T11:49:42;97713.66;;;4.25;100.00
27864;BME280;15980;51.092;13.916;2024-03-23T11:59:43;97712.34;;;4.48;100.00
27864;BME280;15980;51.092;13.916;2024-03-23T12:09:43;97711.25;;;4.32;100.00
27864;BME280;15980;51.092;13.916;2024-03-23T12:19:43;97702.25;;;4.57;100.00
27864;BME280;15980;51.092;13.916;2024-03-23T12:29:44;97703.72;;;4.46;100.00
27864;BME280;15980;51.092;13.916;2024-03-23T12:39:44;97719.44;;;4.70;100.00
27864;BME280;15980;51.092;13.916;2024-03-23T12:49:44;97703.59;;;4.81;100.00
27864;BME280;15980;51.092;13.916;2024-03-23T12:59:45;97733.91;;;5.29;100.00
27864;BME280;15980;51.092;13.916;2024-03-23T13:09:45;97739.88;;;5.14;98.13
27864;BME280;15980;51.092;13.916;2024-03-23T13:19:45;97702.84;;;5.01;98.48
27864;BME280;15980;51.092;13.916;2024-03-23T13:29:45;97780.25;;;5.62;95.94
27864;BME280;15980;51.092;13.916;2024-03-23T13:39:46;97798.94;;;5.43;94.20
27864;BME280;15980;51.092;13.916;2024-03-23T13:49:46;97801.09;;;5.58;93.38
27864;BME280;15980;51.092;13.916;2024-03-23T13:59:47;97799.94;;;5.68;93.13
27864;BME280;15980;51.092;13.916;2024-03-23T14:09:47;97769.22;;;6.63;87.89
27864;BME280;15980;51.092;13.916;2024-03-23T14:19:47;97794.72;;;6.25;85.70
27864;BME280;15980;51.092;13.916;2024-03-23T14:29:48;97807.97;;;6.81;86.11
27864;BME280;15980;51.092;13.916;2024-03-23T14:39:48;97798.16;;;7.25;83.39
27864;BME280;15980;51.092;13.916;2024-03-23T14:49:48;97798.19;;;7.37;81.85
27864;BME280;15980;51.092;13.916;2024-03-23T14:59:49;97775.75;;;7.68;80.90
27864;BME280;15980;51.092;13.916;2024-03-23T15:09:49;97776.56;;;7.56;78.59
27864;BME280;15980;51.092;13.916;2024-03-23T15:19:49;97769.84;;;7.66;77.18
27864;BME280;15980;51.092;13.916;2024-03-23T15:29:51;97770.31;;;7.32;74.21
27864;BME280;15980;51.092;13.916;2024-03-23T15:39:51;97730.16;;;7.56;74.95
27864;BME280;15980;51.092;13.916;2024-03-23T15:49:51;97723.53;;;7.82;75.32
27864;BME280;15980;51.092;13.916;2024-03-23T15:59:52;97706.69;;;7.68;76.09
27864;BME280;15980;51.092;13.916;2024-03-23T16:09:52;97692.22;;;7.39;76.49
27864;BME280;15980;51.092;13.916;2024-03-23T16:19:52;97771.84;;;5.17;83.39
27864;BME280;15980;51.092;13.916;2024-03-23T16:29:52;97777.06;;;4.46;91.61
27864;BME280;15980;51.092;13.916;2024-03-23T16:39:53;97772.91;;;4.31;92.40
27864;BME280;15980;51.092;13.916;2024-03-23T16:49:53;97769.41;;;4.22;94.58
27864;BME280;15980;51.092;13.916;2024-03-23T16:59:53;97765.59;;;4.06;97.60
27864;BME280;15980;51.092;13.916;2024-03-23T17:09:54;97770.22;;;4.14;98.73
27864;BME280;15980;51.092;13.916;2024-03-23T17:20:01;97782.69;;;4.15;98.31
27864;BME280;15980;51.092;13.916;2024-03-23T17:30:02;97796.72;;;4.26;98.38
27864;BME280;15980;51.092;13.916;2024-03-23T17:40:02;97775.94;;;4.30;97.92
27864;BME280;15980;51.092;13.916;2024-03-23T17:50:03;97779.66;;;4.17;97.31
27864;BME280;15980;51.092;13.916;2024-03-23T18:00:04;97762.09;;;3.88;97.98
27864;BME280;15980;51.092;13.916;2024-03-23T18:10:05;97779.63;;;3.73;98.66
27864;BME280;15980;51.092;13.916;2024-03-23T18:20:06;97781.38;;;3.69;99.16
27864;BME280;15980;51.092;13.916;2024-03-23T18:30:06;97800.84;;;3.63;99.29
27864;BME280;15980;51.092;13.916;2024-03-23T18:40:07;97804.50;;;3.58;98.68
27864;BME280;15980;51.092;13.916;2024-03-23T18:50:08;97794.16;;;3.60;98.35
27864;BME280;15980;51.092;13.916;2024-03-23T19:00:08;97791.75;;;3.59;97.74
27864;BME280;15980;51.092;13.916;2024-03-23T19:10:09;97789.53;;;3.61;96.50
27864;BME280;15980;51.092;13.916;2024-03-23T19:20:09;97782.97;;;3.70;95.41
27864;BME280;15980;51.092;13.916;2024-03-23T19:30:10;97779.78;;;3.77;94.82
27864;BME280;15980;51.092;13.916;2024-03-23T19:40:11;97794.16;;;3.77;94.29
27864;BME280;15980;51.092;13.916;2024-03-23T19:50:11;97788.06;;;3.55;94.13
27864;BME280;15980;51.092;13.916;2024-03-23T20:00:13;97795.34;;;3.28;95.41
27864;BME280;15980;51.092;13.916;2024-03-23T20:10:13;97783.56;;;2.93;95.82
27864;BME280;15980;51.092;13.916;2024-03-23T20:20:14;97789.81;;;2.63;96.85
27864;BME280;15980;51.092;13.916;2024-03-23T20:30:14;97777.47;;;2.57;97.67
27864;BME280;15980;51.092;13.916;2024-03-23T20:40:14;97794.84;;;2.56;97.42
27864;BME280;15980;51.092;13.916;2024-03-23T20:50:15;97780.00;;;2.53;98.03
27864;BME280;15980;51.092;13.916;2024-03-23T21:00:15;97777.09;;;2.72;98.31
27864;BME280;15980;51.092;13.916;2024-03-23T21:10:16;97769.13;;;2.67;97.21
27864;BME280;15980;51.092;13.916;2024-03-23T21:20:16;97771.16;;;2.61;97.28
27864;BME280;15980;51.092;13.916;2024-03-23T21:30:16;97751.09;;;2.62;96.51
27864;BME280;15980;51.092;13.916;2024-03-23T21:40:17;97754.19;;;2.47;96.96
27864;BME280;15980;51.092;13.916;2024-03-23T21:50:17;97747.13;;;2.68;97.69
27864;BME280;15980;51.092;13.916;2024-03-23T22:00:18;97740.56;;;3.00;96.17
27864;BME280;15980;51.092;13.916;2024-03-23T22:10:18;97739.91;;;2.95;94.59
27864;BME280;15980;51.092;13.916;2024-03-23T22:20:18;97736.94;;;3.05;92.92
27864;BME280;15980;51.092;13.916;2024-03-23T22:30:19;97731.56;;;3.31;90.79
27864;BME280;15980;51.092;13.916;2024-03-23T22:40:19;97731.69;;;3.08;89.88
27864;BME280;15980;51.092;13.916;2024-03-23T22:50:19;97741.34;;;3.01;89.83
27864;BME280;15980;51.092;13.916;2024-03-23T23:00:19;97726.81;;;2.88;90.63
27864;BME280;15980;51.092;13.916;2024-03-23T23:10:20;97726.19;;;2.91;91.32
27864;BME280;15980;51.092;13.916;2024-03-23T23:20:20;97722.66;;;2.82;90.93
27864;BME280;15980;51.092;13.916;2024-03-23T23:30:20;97710.47;;;2.62;91.19
27864;BME280;15980;51.092;13.916;2024-03-23T23:40:21;97709.84;;;2.65;92.04
27864;BME280;15980;51.092;13.916;2024-03-23T23:50:21;97687.28;;;2.87;91.00
